Time;durP1;ratioP1;P1;durP2;ratioP2;P2;SDS_P1;SDS_P2;PMS_P1;PMS_P2;Temp;Humidity;BMP_temperature;BMP_pressure;BME280_temperature;BME280_humidity;BME280_pressure;Samples;Min_cycle;Max_cycle;Signal;HPM_P1;HPM_P2
2022/01/11 00:01:19;;;;;;;60.37;33.20;;;-2.30;99.90;;;;;;5072284;28;20220;-81
2022/01/11 00:03:46;;;;;;;60.53;34.17;;;-2.30;99.90;;;;;;5070296;28;20071;-81
2022/01/11 00:06:29;;;;;;;49.63;34.50;;;-2.30;99.90;;;;;;5070879;28;20040;-79
2022/01/11 00:09:00;;;;;;;66.00;37.07;;;-2.30;99.90;;;;;;5074634;28;20073;-79
2022/01/11 00:11:28;;;;;;;40.22;28.05;;;-2.30;99.90;;;;;;5077219;28;20049;-80
2022/01/11 00:13:56;;;;;;;53.90;32.70;;;-2.20;99.90;;;;;;5077661;28;20029;-79
2022/01/11 00:16:22;;;;;;;57.17;31.43;;;-2.20;99.90;;;;;;5076261;28;20037;-79
2022/01/11 00:18:49;;;;;;;56.03;35.20;;;-2.20;99.90;;;;;;5077040;28;20033;-82
2022/01/11 00:21:16;;;;;;;44.90;30.03;;;-2.20;99.90;;;;;;5059946;28;20045;-83
2022/01/11 00:26:27;;;;;;;63.20;33.40;;;-2.10;99.90;;;;;;5058824;28;20110;-83
2022/01/11 00:28:53;;;;;;;56.53;34.07;;;-2.10;99.90;;;;;;5058034;28;20045;-81
2022/01/11 00:31:21;;;;;;;55.40;35.80;;;-2.20;99.90;;;;;;5058273;28;20053;-81
2022/01/11 00:33:50;;;;;;;49.70;32.60;;;-2.20;99.90;;;;;;5058236;28;20041;-83
2022/01/11 00:36:16;;;;;;;55.90;37.20;;;-2.10;99.90;;;;;;5058099;28;20052;-81
2022/01/11 00:38:43;;;;;;;38.57;23.90;;;-2.10;99.90;;;;;;5058352;28;20049;-83
2022/01/11 00:41:13;;;;;;;57.73;33.90;;;-2.10;99.90;;;;;;5058141;28;20106;-82
2022/01/11 00:43:42;;;;;;;52.20;28.93;;;-2.20;99.90;;;;;;5057256;28;20052;-79
2022/01/11 00:46:10;;;;;;;41.73;29.00;;;-2.20;99.90;;;;;;5057477;28;20044;-79
2022/01/11 00:48:39;;;;;;;42.57;27.57;;;-2.30;99.90;;;;;;5058611;28;20044;-79
2022/01/11 00:51:07;;;;;;;56.90;30.87;;;-2.20;99.90;;;;;;5058477;28;20044;-84
2022/01/11 00:53:34;;;;;;;48.67;32.70;;;-2.30;99.90;;;;;;5059089;28;20110;-81
2022/01/11 00:56:00;;;;;;;60.60;31.93;;;-2.30;99.90;;;;;;5058770;28;20049;-82
2022/01/11 00:58:27;;;;;;;46.77;32.70;;;-2.20;99.90;;;;;;5057909;28;20045;-83
2022/01/11 01:00:55;;;;;;;59.47;33.67;;;-2.10;99.90;;;;;;5058158;28;20082;-81
2022/01/11 01:03:22;;;;;;;50.80;31.93;;;-2.10;99.90;;;;;;5058181;28;20131;-81
2022/01/11 01:05:51;;;;;;;57.23;33.57;;;-2.10;99.90;;;;;;5056544;28;20128;-81
2022/01/11 01:08:18;;;;;;;55.67;30.53;;;-2.10;99.90;;;;;;5058034;28;20136;-80
2022/01/11 01:10:47;;;;;;;50.17;27.33;;;-2.10;99.90;;;;;;5059030;28;20098;-82
2022/01/11 01:13:17;;;;;;;38.20;25.53;;;-2.10;99.90;;;;;;5058813;28;20049;-81
2022/01/11 01:15:47;;;;;;;26.17;19.93;;;-2.10;99.90;;;;;;5058416;28;20052;-81
2022/01/11 01:18:16;;;;;;;34.60;23.63;;;-2.20;99.90;;;;;;5068496;28;20067;-81
2022/01/11 01:20:43;;;;;;;49.20;29.33;;;-2.20;99.90;;;;;;5078536;28;20045;-86
2022/01/11 01:23:12;;;;;;;31.93;24.93;;;-2.30;99.90;;;;;;5077659;28;20108;-86
2022/01/11 01:25:39;;;;;;;45.60;23.40;;;-2.30;99.90;;;;;;5077180;28;20051;-86
2022/01/11 01:28:06;;;;;;;49.93;27.03;;;-2.30;99.90;;;;;;5066188;28;20067;-82
2022/01/11 01:30:34;;;;;;;51.33;31.73;;;-2.30;99.90;;;;;;5057292;28;20131;-80
2022/01/11 01:33:00;;;;;;;45.37;25.43;;;-2.20;99.90;;;;;;5057073;28;20049;-82
2022/01/11 01:35:33;;;;;;;45.73;29.93;;;-2.20;99.90;;;;;;5056680;28;20045;-82
2022/01/11 01:37:59;;;;;;;38.90;23.33;;;-2.20;99.90;;;;;;5057571;28;20053;-81
2022/01/11 01:40:35;;;;;;;32.80;19.33;;;-2.30;99.90;;;;;;5057545;28;20084;-82
2022/01/11 01:43:02;;;;;;;29.47;21.10;;;-2.30;99.90;;;;;;5056696;28;20095;-82
2022/01/11 01:45:28;;;;;;;39.63;22.87;;;-2.40;99.90;;;;;;5057095;28;20053;-81
2022/01/11 01:47:57;;;;;;;46.17;25.87;;;-2.40;99.90;;;;;;5057563;28;20062;-84
2022/01/11 01:50:24;;;;;;;43.67;23.40;;;-2.40;99.90;;;;;;5057110;28;20041;-83
2022/01/11 01:52:51;;;;;;;40.60;23.87;;;-2.40;99.90;;;;;;5057091;28;20055;-79
2022/01/11 01:55:17;;;;;;;48.10;25.63;;;-2.50;99.90;;;;;;5056849;28;20485;-81
2022/01/11 01:57:46;;;;;;;48.57;28.37;;;-2.40;99.90;;;;;;5057420;28;20102;-80
2022/01/11 02:00:13;;;;;;;35.23;18.80;;;-2.40;99.90;;;;;;5057183;28;20079;-85
2022/01/11 02:02:40;;;;;;;49.80;24.23;;;-2.30;99.90;;;;;;5056248;28;20052;-81
2022/01/11 02:05:08;;;;;;;30.73;21.33;;;-2.40;99.90;;;;;;5055535;28;20045;-80
2022/01/11 02:07:35;;;;;;;55.43;23.57;;;-2.40;99.90;;;;;;5055950;28;20052;-80
2022/01/11 02:10:03;;;;;;;41.03;22.27;;;-2.40;99.90;;;;;;5056351;28;20057;-80
2022/01/11 02:12:29;;;;;;;32.97;22.97;;;-2.40;99.90;;;;;;5056608;28;20045;-81
2022/01/11 02:14:58;;;;;;;35.50;25.23;;;-2.30;99.90;;;;;;5056007;28;20049;-81
2022/01/11 02:17:26;;;;;;;46.47;25.97;;;-2.20;99.90;;;;;;5056763;28;20405;-81
2022/01/11 02:19:54;;;;;;;40.93;21.87;;;-2.10;99.90;;;;;;5056143;28;20122;-82
2022/01/11 02:22:22;;;;;;;39.43;24.70;;;-2.20;99.90;;;;;;5055659;28;20048;-79
2022/01/11 02:24:49;;;;;;;33.50;19.37;;;-2.20;99.90;;;;;;5057323;28;20045;-80
2022/01/11 02:27:16;;;;;;;29.73;18.77;;;-2.20;99.90;;;;;;5056300;28;20048;-83
2022/01/11 02:29:43;;;;;;;35.30;21.50;;;-2.30;99.90;;;;;;5057878;28;20553;-81
2022/01/11 02:32:10;;;;;;;32.67;17.63;;;-2.20;99.90;;;;;;5057965;28;20072;-81
2022/01/11 02:34:37;;;;;;;24.93;17.70;;;-2.30;99.90;;;;;;5056883;28;20045;-86
2022/01/11 02:37:04;;;;;;;44.10;22.60;;;-2.30;99.90;;;;;;5057164;28;20048;-80
2022/01/11 02:39:34;;;;;;;32.00;19.60;;;-2.30;99.90;;;;;;5057183;28;20068;-81
2022/01/11 02:42:02;;;;;;;42.13;19.80;;;-2.30;99.90;;;;;;5057435;28;20055;-82
2022/01/11 02:44:29;;;;;;;35.50;20.87;;;-2.20;99.90;;;;;;5057578;28;20161;-80
2022/01/11 02:46:56;;;;;;;40.07;18.53;;;-2.20;99.90;;;;;;5081637;22;20424;-81
2022/01/11 02:49:23;;;;;;;34.20;16.00;;;-2.20;99.90;;;;;;5077384;28;20381;-82
2022/01/11 02:51:49;;;;;;;20.10;14.57;;;-2.20;99.90;;;;;;5077206;28;20170;-81
2022/01/11 02:54:16;;;;;;;40.70;20.13;;;-2.30;99.90;;;;;;5077083;28;20048;-81
2022/01/11 02:56:44;;;;;;;29.20;21.30;;;-2.30;99.90;;;;;;5077135;28;20408;-82
2022/01/11 02:59:11;;;;;;;27.37;16.03;;;-2.30;99.90;;;;;;5077286;28;20040;-80
2022/01/11 03:01:38;;;;;;;41.27;18.67;;;-2.30;99.90;;;;;;5076120;28;20048;-80
2022/01/11 03:04:05;;;;;;;34.97;18.07;;;-2.20;99.90;;;;;;5074884;28;20056;-80
2022/01/11 03:06:32;;;;;;;35.13;15.30;;;-2.10;99.90;;;;;;5074937;28;20048;-80
2022/01/11 03:08:59;;;;;;;38.40;22.17;;;-2.10;99.90;;;;;;5075457;28;20463;-80
2022/01/11 03:11:32;;;;;;;39.47;22.67;;;-2.10;99.90;;;;;;5075176;28;20048;-80
2022/01/11 03:14:01;;;;;;;25.93;14.70;;;-2.10;99.90;;;;;;5078229;28;20074;-82
2022/01/11 03:16:27;;;;;;;33.93;19.17;;;-2.10;99.90;;;;;;5080973;28;20072;-80
2022/01/11 03:18:54;;;;;;;39.70;19.57;;;-2.00;99.90;;;;;;5080537;28;20067;-81
2022/01/11 03:21:21;;;;;;;32.60;19.50;;;-2.00;99.90;;;;;;5080379;28;20489;-80
2022/01/11 03:23:49;;;;;;;27.90;19.07;;;-2.00;99.90;;;;;;5080667;28;20481;-80
2022/01/11 03:26:15;;;;;;;40.07;19.70;;;-2.00;99.90;;;;;;5080219;28;20045;-82
2022/01/11 03:28:42;;;;;;;35.13;20.70;;;-1.90;99.90;;;;;;5081190;28;20098;-80
2022/01/11 03:31:10;;;;;;;30.57;18.97;;;-1.90;99.90;;;;;;5081036;28;20049;-80
2022/01/11 03:33:37;;;;;;;38.93;18.43;;;-1.90;99.90;;;;;;5080328;28;20525;-81
2022/01/11 03:36:04;;;;;;;36.50;22.10;;;-1.90;99.90;;;;;;5080406;28;20040;-83
2022/01/11 03:38:33;;;;;;;37.73;19.73;;;-1.90;99.90;;;;;;5080734;28;20063;-81
2022/01/11 03:41:00;;;;;;;33.10;16.10;;;-1.90;99.90;;;;;;5080198;28;20079;-80
2022/01/11 03:43:26;;;;;;;28.47;18.13;;;-2.00;99.90;;;;;;5079578;28;20079;-82
2022/01/11 03:45:53;;;;;;;38.57;19.87;;;-1.90;99.90;;;;;;5080062;28;20420;-80
2022/01/11 03:48:22;;;;;;;24.30;11.77;;;-2.00;99.90;;;;;;5080312;28;20044;-80
2022/01/11 03:50:53;;;;;;;41.07;20.10;;;-2.00;99.90;;;;;;5080301;28;20051;-82
2022/01/11 03:53:23;;;;;;;27.85;17.20;;;-2.10;99.90;;;;;;5080606;28;20492;-82
2022/01/11 03:56:11;;;;;;;36.58;18.23;;;-2.00;99.90;;;;;;5079836;28;20048;-86
2022/01/11 03:58:38;;;;;;;24.93;15.37;;;-2.00;99.90;;;;;;5080083;28;20041;-84
2022/01/11 04:01:05;;;;;;;27.33;20.20;;;-2.00;99.90;;;;;;5079794;28;20060;-81
2022/01/11 04:03:33;;;;;;;35.07;16.93;;;-1.90;99.90;;;;;;5079870;28;20471;-83
2022/01/11 04:06:00;;;;;;;33.83;17.07;;;-1.80;99.90;;;;;;5079377;28;20071;-84
2022/01/11 04:08:27;;;;;;;36.27;18.53;;;-1.90;99.90;;;;;;5079178;28;20499;-80
2022/01/11 04:10:54;;;;;;;25.17;18.77;;;-1.90;99.90;;;;;;5077912;28;20480;-81
2022/01/11 04:13:21;;;;;;;27.47;14.97;;;-1.80;99.90;;;;;;5077677;28;20121;-79
2022/01/11 04:15:47;;;;;;;31.13;16.37;;;-1.70;99.90;;;;;;5076947;28;20110;-80
2022/01/11 04:18:14;;;;;;;30.43;16.33;;;-1.80;99.90;;;;;;5077511;28;20493;-80
2022/01/11 04:20:42;;;;;;;36.90;18.20;;;-1.70;99.90;;;;;;5077739;28;20045;-80
2022/01/11 04:23:12;;;;;;;23.03;12.23;;;-1.70;99.90;;;;;;5078710;28;20053;-80
2022/01/11 04:25:39;;;;;;;21.77;17.90;;;-1.80;99.90;;;;;;5079171;28;20040;-82
2022/01/11 04:28:06;;;;;;;28.27;16.07;;;-1.70;99.90;;;;;;5079634;28;20651;-81
2022/01/11 04:30:33;;;;;;;32.97;16.43;;;-1.80;99.90;;;;;;5080172;28;20435;-82
2022/01/11 04:33:00;;;;;;;23.70;12.33;;;-1.90;99.90;;;;;;5080531;28;20051;-81
2022/01/11 04:35:26;;;;;;;33.00;16.47;;;-1.80;99.90;;;;;;5079625;28;20049;-80
2022/01/11 04:37:55;;;;;;;26.50;16.33;;;-1.90;99.90;;;;;;5078125;28;20045;-82
2022/01/11 04:40:21;;;;;;;18.63;12.10;;;-1.90;99.90;;;;;;5079587;28;20052;-82
2022/01/11 04:42:49;;;;;;;27.63;13.60;;;-1.90;99.90;;;;;;5076839;28;20048;-77
2022/01/11 04:45:16;;;;;;;25.53;13.80;;;-2.00;99.90;;;;;;5078532;28;20040;-78
2022/01/11 04:47:45;;;;;;;23.50;13.73;;;-2.00;99.90;;;;;;5077804;28;20047;-79
2022/01/11 04:50:12;;;;;;;36.60;15.93;;;-2.00;99.90;;;;;;5079398;28;20048;-80
2022/01/11 04:52:39;;;;;;;34.07;16.03;;;-2.00;99.90;;;;;;5077394;28;20052;-77
2022/01/11 04:55:08;;;;;;;26.93;13.83;;;-2.00;99.90;;;;;;5077310;28;20570;-77
2022/01/11 04:57:35;;;;;;;36.27;18.27;;;-2.00;99.90;;;;;;5076726;28;20075;-78
2022/01/11 05:00:02;;;;;;;27.43;14.73;;;-1.90;99.90;;;;;;5075743;28;20041;-78
2022/01/11 05:02:28;;;;;;;26.10;13.60;;;-2.00;99.90;;;;;;5077127;28;20052;-82
2022/01/11 05:04:55;;;;;;;39.30;15.27;;;-2.00;99.90;;;;;;5075831;28;20044;-80
2022/01/11 05:07:22;;;;;;;28.00;17.00;;;-2.00;99.90;;;;;;5076445;28;20493;-78
2022/01/11 05:09:49;;;;;;;29.53;14.10;;;-1.90;99.90;;;;;;5076012;28;20094;-78
2022/01/11 05:12:17;;;;;;;22.77;14.33;;;-1.90;99.90;;;;;;5075191;28;20565;-77
2022/01/11 05:14:43;;;;;;;26.53;15.07;;;-1.80;99.90;;;;;;5074381;28;20122;-78
2022/01/11 05:17:10;;;;;;;33.73;16.07;;;-1.80;99.90;;;;;;5076950;28;20045;-79
2022/01/11 05:19:37;;;;;;;27.97;13.83;;;-1.90;99.90;;;;;;5077513;28;20052;-77
2022/01/11 05:22:04;;;;;;;22.23;17.63;;;-1.90;99.90;;;;;;5076160;28;20074;-78
2022/01/11 05:24:31;;;;;;;26.57;16.33;;;-1.80;99.90;;;;;;5076169;28;20044;-78
2022/01/11 05:26:57;;;;;;;29.27;15.90;;;-1.90;99.90;;;;;;5078082;28;20071;-81
2022/01/11 05:29:25;;;;;;;23.83;13.60;;;-1.90;99.90;;;;;;5079979;28;20048;-79
2022/01/11 05:31:52;;;;;;;30.83;15.20;;;-1.90;99.90;;;;;;5078035;28;20044;-77
2022/01/11 05:34:19;;;;;;;34.60;18.07;;;-2.00;99.90;;;;;;5077434;28;20053;-78
2022/01/11 05:36:45;;;;;;;36.27;15.03;;;-2.10;99.90;;;;;;5076628;28;20064;-77
2022/01/11 05:39:12;;;;;;;20.03;13.33;;;-2.00;99.90;;;;;;5085637;28;20041;-80
2022/01/11 05:41:38;;;;;;;19.67;13.03;;;-2.00;99.90;;;;;;5078432;28;20206;-78
2022/01/11 05:44:06;;;;;;;28.20;18.60;;;-2.00;99.90;;;;;;5078945;28;20049;-80
2022/01/11 05:46:34;;;;;;;31.70;17.03;;;-1.90;99.90;;;;;;5079140;28;20102;-84
2022/01/11 05:49:01;;;;;;;23.07;14.17;;;-1.80;99.90;;;;;;5081605;28;20045;-83
2022/01/11 05:51:27;;;;;;;31.30;18.73;;;-1.80;99.90;;;;;;5076854;28;20052;-77
2022/01/11 05:53:55;;;;;;;20.87;16.40;;;-1.80;99.90;;;;;;5072383;28;20064;-75
2022/01/11 05:56:21;;;;;;;27.73;16.00;;;-1.70;99.90;;;;;;5072522;28;20474;-76
2022/01/11 05:58:49;;;;;;;27.40;15.47;;;-1.70;99.90;;;;;;5073690;28;20130;-79
2022/01/11 06:01:15;;;;;;;17.37;12.17;;;-1.70;99.90;;;;;;5078386;28;20048;-82
2022/01/11 06:03:43;;;;;;;24.67;15.83;;;-1.70;99.90;;;;;;5076515;28;20052;-78
2022/01/11 06:06:10;;;;;;;25.73;14.87;;;-1.70;99.90;;;;;;5073404;28;20048;-77
2022/01/11 06:08:37;;;;;;;29.40;16.03;;;-1.80;99.90;;;;;;5072711;28;20049;-76
2022/01/11 06:11:06;;;;;;;36.83;18.27;;;-1.80;99.90;;;;;;5072608;28;20044;-75
2022/01/11 06:13:33;;;;;;;30.60;15.00;;;-1.80;99.90;;;;;;5072195;28;20049;-76
2022/01/11 06:15:59;;;;;;;25.77;13.13;;;-1.70;99.90;;;;;;5071860;28;20048;-75
2022/01/11 06:18:26;;;;;;;22.27;15.07;;;-1.80;99.90;;;;;;5072465;28;20075;-76
2022/01/11 06:20:54;;;;;;;33.73;16.30;;;-1.80;99.90;;;;;;5072065;28;20098;-74
2022/01/11 06:23:20;;;;;;;28.13;17.87;;;-1.80;99.90;;;;;;5075248;28;20071;-78
2022/01/11 06:25:47;;;;;;;36.00;15.20;;;-1.80;99.90;;;;;;5072280;28;20130;-74
2022/01/11 06:28:14;;;;;;;32.53;17.07;;;-1.80;99.90;;;;;;5072063;28;20045;-76
2022/01/11 06:30:40;;;;;;;32.20;16.33;;;-1.80;99.90;;;;;;5074706;28;20074;-77
2022/01/11 06:33:08;;;;;;;26.50;13.97;;;-1.70;99.90;;;;;;5073432;28;20052;-76
2022/01/11 06:35:35;;;;;;;28.33;16.83;;;-1.70;99.90;;;;;;5075085;28;20048;-78
2022/01/11 06:38:03;;;;;;;30.10;15.43;;;-1.60;99.90;;;;;;5075163;28;20045;-77
2022/01/11 06:40:29;;;;;;;26.40;13.30;;;-1.70;99.90;;;;;;5075131;28;20045;-78
2022/01/11 06:42:56;;;;;;;23.77;12.90;;;-1.70;99.90;;;;;;5077445;28;20059;-80
2022/01/11 06:45:23;;;;;;;23.47;12.07;;;-1.60;99.90;;;;;;5076026;28;20048;-78
2022/01/11 06:47:50;;;;;;;30.20;17.97;;;-1.70;99.90;;;;;;5075029;28;20128;-77
2022/01/11 06:50:16;;;;;;;31.57;14.27;;;-1.60;99.90;;;;;;5076141;28;20045;-76
2022/01/11 06:52:44;;;;;;;28.37;16.43;;;-1.70;99.90;;;;;;5082524;28;20098;-78
2022/01/11 06:55:14;;;;;;;24.90;17.43;;;-1.70;99.90;;;;;;5084676;28;20045;-78
2022/01/11 06:57:41;;;;;;;31.13;17.07;;;-1.70;99.90;;;;;;5084157;28;20045;-82
2022/01/11 07:00:10;;;;;;;27.90;15.67;;;-1.70;99.90;;;;;;5088263;28;20306;-82
2022/01/11 07:02:37;;;;;;;27.00;18.67;;;-1.60;99.90;;;;;;5092465;28;20049;-78
2022/01/11 07:05:07;;;;;;;31.63;15.87;;;-1.60;99.90;;;;;;5089639;28;20045;-77
2022/01/11 07:07:35;;;;;;;20.93;13.67;;;-1.70;99.90;;;;;;5089253;28;20075;-79
2022/01/11 07:10:02;;;;;;;24.87;13.70;;;-1.60;99.90;;;;;;5076384;28;20581;-76
2022/01/11 07:12:30;;;;;;;23.57;10.30;;;-1.70;99.90;;;;;;5079325;28;20044;-78
2022/01/11 07:14:56;;;;;;;28.93;16.53;;;-1.70;99.90;;;;;;5079691;28;20215;-80
2022/01/11 07:17:23;;;;;;;17.33;12.13;;;-1.70;99.90;;;;;;5079726;28;20052;-82
2022/01/11 07:19:50;;;;;;;24.53;13.57;;;-1.80;99.90;;;;;;5081334;28;20055;-81
2022/01/11 07:22:17;;;;;;;23.03;13.50;;;-1.90;99.90;;;;;;5083564;28;20048;-80
2022/01/11 07:24:45;;;;;;;24.03;15.87;;;-1.80;99.90;;;;;;5081027;28;20052;-85
2022/01/11 07:27:12;;;;;;;20.93;12.80;;;-1.80;99.90;;;;;;5080971;28;20041;-82
2022/01/11 07:29:40;;;;;;;21.37;14.33;;;-1.90;99.90;;;;;;5083020;28;20052;-81
2022/01/11 07:32:08;;;;;;;27.17;12.60;;;-1.80;99.90;;;;;;5077846;28;20056;-75
2022/01/11 07:34:34;;;;;;;28.73;16.17;;;-1.80;99.90;;;;;;5077776;28;20075;-80
2022/01/11 07:37:01;;;;;;;21.13;13.70;;;-1.80;99.90;;;;;;5078735;28;20050;-76
2022/01/11 07:39:27;;;;;;;23.83;14.33;;;-1.90;99.90;;;;;;5075826;28;20048;-77
2022/01/11 07:41:54;;;;;;;26.23;16.53;;;-1.80;99.90;;;;;;5079493;28;20048;-78
2022/01/11 07:44:21;;;;;;;20.03;15.57;;;-1.70;99.90;;;;;;5075800;28;20048;-76
2022/01/11 07:46:49;;;;;;;24.13;14.13;;;-1.70;99.90;;;;;;5077796;28;20114;-79
2022/01/11 07:49:15;;;;;;;28.00;14.87;;;-1.70;99.90;;;;;;5077904;28;20045;-79
2022/01/11 07:51:42;;;;;;;22.33;14.07;;;-1.80;99.90;;;;;;5081404;28;20049;-85
2022/01/11 07:54:09;;;;;;;32.33;14.93;;;-1.70;99.90;;;;;;5076187;28;20106;-78
2022/01/11 07:56:36;;;;;;;20.70;15.43;;;-1.70;99.90;;;;;;5077461;28;20098;-86
2022/01/11 07:59:03;;;;;;;23.33;13.03;;;-1.70;99.90;;;;;;5076163;28;20109;-75
2022/01/11 08:01:31;;;;;;;22.03;14.77;;;-1.60;99.90;;;;;;5077116;28;20044;-76
2022/01/11 08:04:02;;;;;;;28.77;13.57;;;-1.60;99.90;;;;;;5079381;28;20110;-88
2022/01/11 08:06:28;;;;;;;17.97;12.83;;;-1.60;99.90;;;;;;5076828;28;20493;-77
2022/01/11 08:08:55;;;;;;;25.87;15.07;;;-1.70;99.90;;;;;;5075551;28;20049;-75
2022/01/11 08:11:22;;;;;;;29.40;15.67;;;-1.60;99.90;;;;;;5074150;28;20045;-76
2022/01/11 08:13:48;;;;;;;26.23;15.40;;;-1.50;99.90;;;;;;5077403;28;20048;-79
2022/01/11 08:16:15;;;;;;;24.97;15.97;;;-1.50;99.90;;;;;;5076520;28;20041;-79
2022/01/11 08:18:41;;;;;;;23.13;12.77;;;-1.50;99.90;;;;;;5076504;28;20048;-79
2022/01/11 08:21:09;;;;;;;32.20;13.73;;;-1.50;99.90;;;;;;5080473;28;20048;-83
2022/01/11 08:23:36;;;;;;;29.00;15.27;;;-1.40;99.90;;;;;;5079562;28;20125;-79
2022/01/11 08:26:05;;;;;;;22.30;14.07;;;-1.40;99.90;;;;;;5081694;28;20057;-82
2022/01/11 08:28:32;;;;;;;24.40;14.90;;;-1.40;99.90;;;;;;5079507;28;20076;-78
2022/01/11 08:30:58;;;;;;;29.40;13.90;;;-1.40;99.90;;;;;;5078156;28;20048;-79
2022/01/11 08:33:25;;;;;;;29.07;16.50;;;-1.40;99.90;;;;;;5078907;28;20083;-79
2022/01/11 08:35:52;;;;;;;26.07;12.80;;;-1.40;99.90;;;;;;5078501;28;20049;-80
2022/01/11 08:38:20;;;;;;;25.00;12.53;;;-1.50;99.90;;;;;;5077145;28;20488;-76
2022/01/11 08:40:47;;;;;;;19.80;13.70;;;-1.40;99.90;;;;;;5075374;28;20538;-76
2022/01/11 08:43:14;;;;;;;14.97;9.87;;;-1.40;99.90;;;;;;5078379;28;20498;-79
2022/01/11 08:45:41;;;;;;;17.57;12.20;;;-1.40;99.90;;;;;;5072854;28;20048;-74
2022/01/11 08:48:08;;;;;;;18.43;13.07;;;-1.50;99.90;;;;;;5073487;28;20060;-73
2022/01/11 08:50:34;;;;;;;20.80;10.10;;;-1.50;99.90;;;;;;5073441;28;20048;-76
2022/01/11 08:53:03;;;;;;;20.20;11.37;;;-1.50;99.90;;;;;;5077280;28;20044;-83
2022/01/11 08:55:31;;;;;;;17.63;13.23;;;-1.50;99.90;;;;;;5081842;28;20052;-86
2022/01/11 08:57:58;;;;;;;19.30;12.70;;;-1.40;99.90;;;;;;5082481;28;20044;-84
2022/01/11 09:00:26;;;;;;;16.40;11.60;;;-1.40;99.90;;;;;;5082638;28;20044;-82
2022/01/11 09:02:54;;;;;;;19.90;13.03;;;-1.30;99.90;;;;;;5085039;28;20051;-77
2022/01/11 09:05:21;;;;;;;28.67;14.53;;;-1.30;99.90;;;;;;5074626;28;20518;-78
2022/01/11 09:07:48;;;;;;;22.80;11.87;;;-1.30;99.90;;;;;;5080209;28;20070;-79
2022/01/11 09:10:16;;;;;;;17.63;12.40;;;-1.00;99.90;;;;;;5078284;28;20216;-79
2022/01/11 09:12:46;;;;;;;16.33;11.30;;;-0.90;99.90;;;;;;5078157;28;20067;-80
2022/01/11 09:15:13;;;;;;;24.27;13.03;;;-0.80;99.90;;;;;;5080390;28;20067;-85
2022/01/11 09:17:40;;;;;;;21.63;12.07;;;-0.80;99.90;;;;;;5080650;28;20048;-79
2022/01/11 09:20:10;;;;;;;21.37;13.17;;;-0.60;99.90;;;;;;5079193;28;20405;-79
2022/01/11 09:22:37;;;;;;;16.80;12.17;;;-0.70;99.90;;;;;;5074145;28;20504;-77
2022/01/11 09:25:04;;;;;;;22.43;11.63;;;-0.60;99.90;;;;;;5081088;28;20044;-81
2022/01/11 09:27:30;;;;;;;29.80;16.20;;;-0.60;99.90;;;;;;5083942;28;20044;-81
2022/01/11 09:29:59;;;;;;;29.53;15.17;;;-0.60;99.90;;;;;;5079348;28;20044;-79
2022/01/11 09:32:26;;;;;;;25.80;13.17;;;-0.40;99.90;;;;;;5079464;28;20158;-78
2022/01/11 09:34:53;;;;;;;18.60;12.93;;;0.00;99.90;;;;;;5075989;28;20044;-81
2022/01/11 09:37:20;;;;;;;21.27;14.67;;;0.20;99.90;;;;;;5078334;28;20051;-79
2022/01/11 09:39:48;;;;;;;27.17;14.53;;;0.40;99.90;;;;;;5077928;28;20055;-80
2022/01/11 09:42:14;;;;;;;22.17;13.40;;;0.90;99.90;;;;;;5079641;28;20060;-82
2022/01/11 09:44:41;;;;;;;14.10;9.37;;;1.80;99.90;;;;;;5077320;28;20045;-79
2022/01/11 09:47:12;;;;;;;26.73;13.10;;;2.00;99.90;;;;;;5078129;28;20393;-80
2022/01/11 09:49:38;;;;;;;22.83;11.37;;;2.70;99.90;;;;;;5076963;28;20493;-78
2022/01/11 09:52:07;;;;;;;18.93;10.47;;;3.50;99.90;;;;;;5078051;28;20052;-80
2022/01/11 09:54:35;;;;;;;20.17;12.37;;;3.80;99.90;;;;;;5076821;28;20045;-83
2022/01/11 09:57:03;;;;;;;19.03;13.17;;;3.60;99.90;;;;;;5075676;28;20079;-81
2022/01/11 09:59:33;;;;;;;18.40;9.20;;;4.60;99.90;;;;;;5077063;28;20137;-81
2022/01/11 10:02:00;;;;;;;22.57;15.47;;;4.20;99.90;;;;;;5077283;28;20078;-80
2022/01/11 10:04:29;;;;;;;16.00;10.23;;;4.90;99.90;;;;;;5076097;28;20048;-79
2022/01/11 10:06:59;;;;;;;23.17;12.50;;;5.80;99.90;;;;;;5076315;28;20076;-81
2022/01/11 10:09:28;;;;;;;19.33;10.70;;;6.70;99.90;;;;;;5077094;28;20079;-81
2022/01/11 10:11:55;;;;;;;22.03;11.87;;;6.80;99.90;;;;;;5073088;28;20068;-75
2022/01/11 10:14:26;;;;;;;21.03;12.30;;;6.80;99.90;;;;;;5071750;28;20378;-75
2022/01/11 10:17:06;;;;;;;25.00;11.87;;;6.50;99.90;;;;;;5073365;28;20069;-77
2022/01/11 10:19:34;;;;;;;20.13;10.33;;;8.00;99.90;;;;;;5075956;28;20049;-77
2022/01/11 10:22:04;;;;;;;17.67;9.77;;;7.70;98.50;;;;;;5077826;28;20052;-78
2022/01/11 10:24:37;;;;;;;19.30;10.50;;;7.30;98.30;;;;;;5075266;28;20129;-74
2022/01/11 10:27:07;;;;;;;22.47;10.90;;;7.00;99.10;;;;;;5073971;28;20052;-76
2022/01/11 10:29:37;;;;;;;21.90;10.53;;;7.90;99.40;;;;;;5075785;28;20064;-79
2022/01/11 10:32:16;;;;;;;27.47;11.50;;;8.60;91.10;;;;;;5076381;28;20047;-75
2022/01/11 10:34:47;;;;;;;18.93;11.40;;;8.30;93.10;;;;;;5074574;28;20045;-78
2022/01/11 10:37:15;;;;;;;17.77;10.93;;;7.40;94.90;;;;;;5075994;28;20118;-76
2022/01/11 10:39:44;;;;;;;19.80;11.23;;;8.60;92.00;;;;;;5077627;28;20123;-76
2022/01/11 10:42:26;;;;;;;25.03;11.97;;;9.10;86.20;;;;;;5080339;28;20048;-78
2022/01/11 10:44:55;;;;;;;19.43;11.07;;;10.10;83.00;;;;;;5079219;28;20048;-77
2022/01/11 10:47:25;;;;;;;21.67;10.00;;;10.00;74.70;;;;;;5091095;28;20075;-83
2022/01/11 10:50:10;;;;;;;21.53;12.03;;;10.40;75.90;;;;;;5097255;28;20043;-85
2022/01/11 10:52:37;;;;;;;19.77;10.23;;;10.60;74.50;;;;;;5086887;28;20048;-77
2022/01/11 10:55:06;;;;;;;24.33;12.27;;;9.90;74.10;;;;;;5089292;28;20792;-79
2022/01/11 10:57:36;;;;;;;22.48;11.77;;;10.20;76.30;;;;;;5076785;28;20045;-79
2022/01/11 11:00:20;;;;;;;20.48;10.25;;;11.90;69.50;;;;;;5074772;28;20104;-79
2022/01/11 11:02:50;;;;;;;19.08;9.50;;;12.40;65.90;;;;;;5074159;28;20056;-78
2022/01/11 11:05:23;;;;;;;21.50;9.80;;;11.60;66.20;;;;;;5073469;28;20079;-76
2022/01/11 11:08:07;;;;;;;19.23;10.10;;;10.00;68.40;;;;;;5078517;28;20384;-77
2022/01/11 11:10:40;;;;;;;20.47;13.03;;;8.80;74.50;;;;;;5073218;28;20110;-77
2022/01/11 11:13:08;;;;;;;20.20;11.53;;;9.80;76.10;;;;;;5074999;28;20056;-77
2022/01/11 11:15:37;;;;;;;21.37;10.90;;;8.70;76.80;;;;;;5073926;28;20049;-78
2022/01/11 11:18:05;;;;;;;18.70;11.10;;;9.50;77.80;;;;;;5074129;28;20055;-77
2022/01/11 11:20:35;;;;;;;19.80;10.97;;;10.30;72.00;;;;;;5077123;28;20052;-78
2022/01/11 11:23:04;;;;;;;19.97;9.63;;;10.00;73.30;;;;;;5078033;28;20052;-78
2022/01/11 11:25:31;;;;;;;22.10;11.63;;;11.20;71.50;;;;;;5073131;28;20071;-77
2022/01/11 11:27:57;;;;;;;20.08;10.63;;;12.10;66.20;;;;;;5073140;28;20048;-77
2022/01/11 11:30:24;;;;;;;23.90;12.80;;;11.20;64.20;;;;;;5073041;28;20094;-78
2022/01/11 11:32:53;;;;;;;21.77;12.88;;;11.90;65.50;;;;;;5073910;28;20082;-78
2022/01/11 11:35:21;;;;;;;22.90;11.18;;;11.20;64.60;;;;;;5074447;28;20440;-77
2022/01/11 11:37:55;;;;;;;25.83;11.43;;;10.80;68.00;;;;;;5076978;28;20049;-77
2022/01/11 11:40:24;;;;;;;19.55;10.75;;;12.00;65.30;;;;;;5080604;28;20075;-77
2022/01/11 11:42:54;;;;;;;18.63;10.65;;;12.50;62.00;;;;;;5078453;28;20044;-77
2022/01/11 11:45:23;;;;;;;21.25;11.13;;;11.30;61.80;;;;;;5075245;28;20044;-77
2022/01/11 11:47:50;;;;;;;22.60;11.07;;;11.20;62.20;;;;;;5075607;28;20045;-79
2022/01/11 11:50:21;;;;;;;21.58;10.45;;;9.50;67.90;;;;;;5076910;28;20048;-77
2022/01/11 11:52:51;;;;;;;22.85;10.25;;;9.50;68.20;;;;;;5076162;28;20051;-77
2022/01/11 11:55:23;;;;;;;19.15;10.07;;;10.00;70.00;;;;;;5076258;28;20044;-76
2022/01/11 11:57:51;;;;;;;;;;;10.70;66.80;;;;;;5077560;28;20048;-78
2022/01/11 12:00:19;;;;;;;19.90;10.02;;;12.20;64.10;;;;;;5076866;28;19974;-77
2022/01/11 12:02:47;;;;;;;20.27;10.48;;;13.00;59.70;;;;;;5077744;28;20056;-76
2022/01/11 12:05:31;;;;;;;18.40;10.05;;;12.00;59.20;;;;;;5075869;28;20055;-79
2022/01/11 12:07:59;;;;;;;24.20;11.77;;;10.80;62.10;;;;;;5074992;28;20098;-73
2022/01/11 12:10:52;;;;;;;19.90;10.38;;;10.00;64.60;;;;;;5074251;28;20040;-72
2022/01/11 12:13:47;;;;;;;19.45;10.95;;;10.60;64.00;;;;;;5074435;28;20509;-75
2022/01/11 12:16:41;;;;;;;19.45;9.35;;;10.70;64.10;;;;;;5073703;28;20044;-76
2022/01/11 12:19:30;;;;;;;18.08;10.13;;;10.30;63.70;;;;;;5076640;28;20044;-79
2022/01/11 12:22:17;;;;;;;18.58;11.07;;;10.80;63.30;;;;;;5058421;28;20044;-78
2022/01/11 12:24:48;;;;;;;21.60;10.10;;;11.40;62.40;;;;;;5076083;28;20049;-77
2022/01/11 12:27:16;;;;;;;20.85;12.23;;;11.70;61.20;;;;;;5076015;28;20098;-77
2022/01/11 12:29:54;;;;;;;16.70;10.75;;;11.70;59.40;;;;;;5078358;28;20059;-82
2022/01/11 12:32:22;;;;;;;15.77;8.38;;;10.00;62.70;;;;;;5084899;28;20048;-84
2022/01/11 12:34:58;;;;;;;20.27;9.77;;;8.50;68.40;;;;;;5083912;28;20057;-82
2022/01/11 12:37:28;;;;;;;18.52;9.23;;;8.30;72.10;;;;;;5085337;28;20151;-81